Time;durP1;ratioP1;P1;durP2;ratioP2;P2;SDS_P1;SDS_P2;PMS_P1;PMS_P2;Temp;Humidity;BMP_temperature;BMP_pressure;BME280_temperature;BME280_humidity;BME280_pressure;Samples;Min_cycle;Max_cycle;Signal;HPM_P1;HPM_P2
2023/12/17 00:01:05;;;;;;;38.33;20.80;;;-2.50;99.90;;;;;;4193723;28;20270;-59
2023/12/17 00:03:07;;;;;;;33.57;18.00;;;-2.50;99.90;;;;;;4194373;28;20359;-59
2023/12/17 00:05:08;;;;;;;36.97;19.93;;;-2.60;99.90;;;;;;4192806;28;20323;-56
2023/12/17 00:07:09;;;;;;;35.70;17.77;;;-2.60;99.90;;;;;;4194971;28;20281;-55
2023/12/17 00:09:10;;;;;;;33.03;17.33;;;-2.60;99.90;;;;;;4192335;28;20277;-57
2023/12/17 00:11:12;;;;;;;35.83;18.60;;;-2.60;99.90;;;;;;4194054;28;20618;-58
2023/12/17 00:13:13;;;;;;;31.33;15.27;;;-2.60;99.90;;;;;;4192716;28;20277;-60
2023/12/17 00:15:14;;;;;;;40.50;19.30;;;-2.60;99.90;;;;;;4194252;28;20257;-59
2023/12/17 00:17:15;;;;;;;31.03;15.03;;;-2.50;99.90;;;;;;4193790;28;20327;-58
2023/12/17 00:19:16;;;;;;;30.93;16.53;;;-2.50;99.90;;;;;;4194359;28;20985;-59
2023/12/17 00:21:18;;;;;;;30.90;16.83;;;-2.50;99.90;;;;;;4193333;28;20270;-58
2023/12/17 00:23:19;;;;;;;26.87;13.80;;;-2.60;99.90;;;;;;4175885;28;20364;-58
2023/12/17 00:25:20;;;;;;;23.47;12.10;;;-2.50;99.90;;;;;;4193120;28;20277;-55
2023/12/17 00:27:21;;;;;;;27.33;13.67;;;-2.50;99.90;;;;;;4192769;28;20575;-57
2023/12/17 00:29:23;;;;;;;23.40;11.47;;;-2.40;99.90;;;;;;4193449;28;20250;-57
2023/12/17 00:31:24;;;;;;;19.97;9.90;;;-2.40;99.90;;;;;;4193429;28;20242;-57
2023/12/17 00:33:25;;;;;;;21.97;11.60;;;-2.40;99.90;;;;;;4193676;28;20745;-57
2023/12/17 00:35:26;;;;;;;16.50;8.57;;;-2.40;99.90;;;;;;4193306;28;20258;-59
2023/12/17 00:37:28;;;;;;;15.03;8.30;;;-2.30;99.90;;;;;;4193810;28;20258;-53
2023/12/17 00:39:29;;;;;;;14.90;7.27;;;-2.30;99.90;;;;;;4193108;28;20610;-58
2023/12/17 00:41:31;;;;;;;15.87;7.07;;;-2.30;99.90;;;;;;4193088;28;20648;-57
2023/12/17 00:43:33;;;;;;;18.40;8.47;;;-2.30;99.90;;;;;;4192205;28;21191;-58
2023/12/17 00:45:34;;;;;;;15.73;7.57;;;-2.30;99.90;;;;;;4193033;28;20354;-55
2023/12/17 00:47:35;;;;;;;16.33;7.77;;;-2.30;99.90;;;;;;4193150;28;20277;-59
2023/12/17 00:49:36;;;;;;;16.40;8.33;;;-2.30;99.90;;;;;;4192929;28;20269;-55
2023/12/17 00:51:38;;;;;;;15.73;7.47;;;-2.30;99.90;;;;;;4193241;28;20269;-58
2023/12/17 00:53:39;;;;;;;14.60;7.03;;;-2.30;99.90;;;;;;4193124;28;20319;-58
2023/12/17 00:55:40;;;;;;;15.93;7.73;;;-2.20;99.90;;;;;;4193709;28;20250;-55
2023/12/17 00:57:41;;;;;;;14.53;6.73;;;-2.20;99.90;;;;;;4190877;28;20270;-57
2023/12/17 00:59:43;;;;;;;15.27;8.03;;;-2.20;99.90;;;;;;4193809;28;20269;-56
2023/12/17 01:01:44;;;;;;;13.43;7.30;;;-2.20;99.90;;;;;;4192099;28;20393;-55
2023/12/17 01:03:45;;;;;;;17.87;10.00;;;-2.20;99.90;;;;;;4192876;28;20297;-59
2023/12/17 01:05:46;;;;;;;20.60;10.77;;;-2.20;99.90;;;;;;4192480;28;20258;-59
2023/12/17 01:07:47;;;;;;;19.10;10.23;;;-2.20;99.90;;;;;;4193285;28;20319;-56
2023/12/17 01:09:49;;;;;;;22.00;10.23;;;-2.20;99.90;;;;;;4192973;28;20318;-57
2023/12/17 01:11:50;;;;;;;23.87;11.47;;;-2.20;99.90;;;;;;4193910;28;20277;-59
2023/12/17 01:13:51;;;;;;;28.00;12.63;;;-2.30;99.90;;;;;;4192196;28;20346;-57
2023/12/17 01:15:52;;;;;;;32.37;14.97;;;-2.40;99.90;;;;;;4193795;28;20261;-56
2023/12/17 01:17:53;;;;;;;28.90;13.83;;;-2.60;99.90;;;;;;4192699;28;20327;-54
2023/12/17 01:19:55;;;;;;;31.53;14.27;;;-2.70;99.90;;;;;;4193648;28;20675;-58
2023/12/17 01:21:57;;;;;;;32.77;14.83;;;-2.70;99.90;;;;;;4188590;28;20400;-58
2023/12/17 01:23:59;;;;;;;30.17;13.83;;;-2.80;99.90;;;;;;4174929;28;21221;-55
2023/12/17 01:26:00;;;;;;;29.00;14.70;;;-2.90;99.90;;;;;;4192282;28;20693;-55
2023/12/17 01:28:01;;;;;;;33.03;14.60;;;-2.90;99.90;;;;;;4193042;28;20318;-58
2023/12/17 01:30:02;;;;;;;32.37;14.83;;;-2.90;99.90;;;;;;4192852;28;20675;-57
2023/12/17 01:32:04;;;;;;;29.70;12.77;;;-2.90;99.90;;;;;;4192320;28;20819;-55
2023/12/17 01:34:07;;;;;;;32.07;16.07;;;-2.90;99.90;;;;;;4193177;28;20350;-56
2023/12/17 01:36:08;;;;;;;31.60;14.20;;;-3.00;99.90;;;;;;4192339;28;20741;-58
2023/12/17 01:38:09;;;;;;;31.07;14.20;;;-3.00;99.90;;;;;;4192738;28;20749;-57
2023/12/17 01:40:11;;;;;;;27.20;13.67;;;-3.10;99.90;;;;;;4192073;28;20273;-58
2023/12/17 01:42:12;;;;;;;30.60;13.90;;;-3.10;99.90;;;;;;4193672;28;20937;-56
2023/12/17 01:44:13;;;;;;;29.00;13.27;;;-3.10;99.90;;;;;;4192498;28;20575;-57
2023/12/17 01:46:15;;;;;;;29.60;12.97;;;-3.10;99.90;;;;;;4175250;28;20278;-53
2023/12/17 01:48:16;;;;;;;27.50;13.23;;;-3.10;99.90;;;;;;4192649;28;20265;-57
2023/12/17 01:50:18;;;;;;;32.30;14.53;;;-3.10;99.90;;;;;;4174926;28;20278;-57
2023/12/17 01:52:19;;;;;;;29.10;13.67;;;-3.10;99.90;;;;;;4192677;28;20929;-58
2023/12/17 01:54:20;;;;;;;29.97;13.03;;;-3.00;99.90;;;;;;4193327;28;20277;-53
2023/12/17 01:56:22;;;;;;;26.57;13.37;;;-3.00;99.90;;;;;;4192895;28;20261;-56
2023/12/17 01:58:23;;;;;;;29.00;13.80;;;-3.00;99.90;;;;;;4190872;28;20347;-55
2023/12/17 02:00:25;;;;;;;26.80;13.53;;;-3.00;99.90;;;;;;4192087;28;20281;-58
2023/12/17 02:02:26;;;;;;;28.73;13.53;;;-3.00;99.90;;;;;;4192033;28;20281;-57
2023/12/17 02:04:28;;;;;;;30.50;13.80;;;-3.10;99.90;;;;;;4193068;28;20277;-58
2023/12/17 02:06:29;;;;;;;28.00;14.70;;;-3.10;99.90;;;;;;4192042;28;20278;-55
2023/12/17 02:08:30;;;;;;;30.73;15.10;;;-3.20;99.90;;;;;;4193098;28;20262;-57
2023/12/17 02:10:32;;;;;;;31.80;13.97;;;-3.20;99.90;;;;;;4192245;28;20319;-54
2023/12/17 02:12:33;;;;;;;30.50;13.80;;;-3.20;99.90;;;;;;4192886;28;20662;-57
2023/12/17 02:14:34;;;;;;;29.93;13.97;;;-3.10;99.90;;;;;;4190925;28;20273;-59
2023/12/17 02:16:35;;;;;;;31.40;13.57;;;-3.10;99.90;;;;;;4193089;28;20331;-57
2023/12/17 02:18:36;;;;;;;26.50;12.93;;;-3.20;99.90;;;;;;4191199;28;20274;-56
2023/12/17 02:20:38;;;;;;;26.20;13.57;;;-3.20;99.90;;;;;;4192309;28;20273;-57
2023/12/17 02:22:39;;;;;;;29.07;13.00;;;-3.30;99.90;;;;;;4191676;28;20269;-58
2023/12/17 02:24:40;;;;;;;24.17;12.80;;;-3.20;99.90;;;;;;4192974;28;20310;-59
2023/12/17 02:26:42;;;;;;;28.23;12.73;;;-3.30;99.90;;;;;;4192435;28;20266;-60
2023/12/17 02:28:45;;;;;;;30.47;14.43;;;-3.30;99.90;;;;;;4192121;28;20261;-58
2023/12/17 02:30:46;;;;;;;35.87;16.00;;;-3.30;99.90;;;;;;4191810;28;20284;-58
2023/12/17 02:32:47;;;;;;;34.30;16.43;;;-3.40;99.90;;;;;;4194014;28;20261;-57
2023/12/17 02:34:49;;;;;;;35.60;15.30;;;-3.50;99.90;;;;;;4194522;28;20327;-57
2023/12/17 02:36:50;;;;;;;31.33;14.43;;;-3.60;99.90;;;;;;4195353;28;20380;-59
2023/12/17 02:38:51;;;;;;;30.20;15.50;;;-3.70;99.90;;;;;;4195345;28;20757;-59
2023/12/17 02:40:53;;;;;;;32.83;14.90;;;-3.70;99.90;;;;;;4193635;28;20338;-59
2023/12/17 02:42:54;;;;;;;26.63;13.23;;;-3.80;99.90;;;;;;4195705;28;20366;-58
2023/12/17 02:44:55;;;;;;;28.77;13.97;;;-3.80;99.90;;;;;;4193991;28;20329;-58
2023/12/17 02:46:58;;;;;;;28.30;13.10;;;-3.80;99.90;;;;;;4195502;28;20285;-59
2023/12/17 02:48:59;;;;;;;28.53;12.93;;;-3.70;99.90;;;;;;4194704;28;20741;-58
2023/12/17 02:51:00;;;;;;;25.83;13.07;;;-3.70;99.90;;;;;;4194786;28;20269;-56
2023/12/17 02:53:01;;;;;;;28.20;13.97;;;-3.70;99.90;;;;;;4195183;28;20258;-59
2023/12/17 02:55:03;;;;;;;29.63;14.30;;;-3.70;99.90;;;;;;4194604;28;20342;-58
2023/12/17 02:57:04;;;;;;;29.97;14.37;;;-3.60;99.90;;;;;;4194534;28;20683;-59
2023/12/17 02:59:09;;;;;;;31.30;13.83;;;-3.60;99.90;;;;;;4195512;28;20315;-58
2023/12/17 03:01:10;;;;;;;29.37;13.20;;;-3.60;99.90;;;;;;4195366;28;20299;-55
2023/12/17 03:03:12;;;;;;;28.83;13.73;;;-3.60;99.90;;;;;;4194450;28;20297;-59
2023/12/17 03:05:13;;;;;;;27.87;12.27;;;-3.60;99.90;;;;;;4194751;28;20273;-59
2023/12/17 03:07:14;;;;;;;27.47;13.27;;;-3.60;99.90;;;;;;4194951;28;20825;-59
2023/12/17 03:09:16;;;;;;;26.97;12.77;;;-3.50;99.90;;;;;;4194838;28;20676;-56
2023/12/17 03:11:17;;;;;;;23.10;10.40;;;-3.50;99.90;;;;;;4193203;28;20335;-58
2023/12/17 03:13:18;;;;;;;17.70;8.77;;;-3.50;99.90;;;;;;4195608;28;20261;-59
2023/12/17 03:15:20;;;;;;;19.50;8.10;;;-3.50;99.90;;;;;;4175953;28;20332;-56
2023/12/17 03:17:21;;;;;;;14.67;7.53;;;-3.50;99.90;;;;;;4195002;28;20656;-59
2023/12/17 03:19:23;;;;;;;13.77;6.73;;;-3.40;99.90;;;;;;4193864;28;20356;-58
2023/12/17 03:21:26;;;;;;;13.30;7.67;;;-3.40;99.90;;;;;;4195488;28;20265;-59
2023/12/17 03:23:27;;;;;;;18.27;7.80;;;-3.30;99.90;;;;;;4193192;28;20699;-59
2023/12/17 03:25:28;;;;;;;24.87;10.00;;;-3.30;99.90;;;;;;4195491;28;20648;-59
2023/12/17 03:27:30;;;;;;;22.53;10.57;;;-3.30;99.90;;;;;;4194171;28;20277;-59
2023/12/17 03:29:31;;;;;;;21.57;9.73;;;-3.40;99.90;;;;;;4194685;28;20697;-58
2023/12/17 03:31:32;;;;;;;20.90;9.13;;;-3.40;99.90;;;;;;4195156;28;20323;-57
2023/12/17 03:33:33;;;;;;;18.63;9.43;;;-3.40;99.90;;;;;;4194041;28;20319;-55
2023/12/17 03:35:35;;;;;;;23.60;9.67;;;-3.40;99.90;;;;;;4193966;28;20277;-57
2023/12/17 03:37:36;;;;;;;18.77;9.50;;;-3.40;99.90;;;;;;4193881;28;20273;-57
2023/12/17 03:39:37;;;;;;;17.70;8.90;;;-3.50;99.90;;;;;;4195195;28;20370;-60
2023/12/17 03:41:38;;;;;;;16.90;8.93;;;-3.40;99.90;;;;;;4193668;28;20311;-59
2023/12/17 03:43:39;;;;;;;18.80;9.33;;;-3.40;99.90;;;;;;4194864;28;20285;-58
2023/12/17 03:45:40;;;;;;;20.17;9.70;;;-3.40;99.90;;;;;;4192857;28;20672;-59
2023/12/17 03:47:46;;;;;;;22.77;10.13;;;-3.50;99.90;;;;;;4194260;28;20706;-59
2023/12/17 03:49:48;;;;;;;25.20;11.10;;;-3.50;99.90;;;;;;4193911;28;20269;-57
2023/12/17 03:51:49;;;;;;;20.23;10.17;;;-3.60;99.90;;;;;;4194710;28;20281;-59
2023/12/17 03:53:50;;;;;;;22.57;11.47;;;-3.70;99.90;;;;;;4193560;28;20277;-56
2023/12/17 03:55:52;;;;;;;26.77;12.50;;;-3.80;99.90;;;;;;4194227;28;20273;-56
2023/12/17 03:57:53;;;;;;;24.60;11.20;;;-3.80;99.90;;;;;;4193251;28;20335;-57
2023/12/17 03:59:54;;;;;;;26.83;12.57;;;-3.90;99.90;;;;;;4194652;28;20270;-55
2023/12/17 04:01:58;;;;;;;25.03;12.60;;;-3.90;99.90;;;;;;4175089;28;20274;-55
2023/12/17 04:03:59;;;;;;;27.37;13.20;;;-3.90;99.90;;;;;;4193669;28;20297;-58
2023/12/17 04:06:02;;;;;;;23.77;11.13;;;-4.00;99.90;;;;;;4193870;28;20553;-58
2023/12/17 04:08:05;;;;;;;28.10;12.33;;;-4.00;99.90;;;;;;4193698;28;20664;-58
2023/12/17 04:10:07;;;;;;;24.07;11.23;;;-4.10;99.90;;;;;;4193838;28;20343;-54
2023/12/17 04:12:08;;;;;;;26.30;13.37;;;-4.10;99.90;;;;;;4194098;28;20366;-55
2023/12/17 04:14:09;;;;;;;36.33;16.73;;;-4.00;99.90;;;;;;4193296;28;20339;-56
2023/12/17 04:16:11;;;;;;;32.23;15.43;;;-4.00;99.90;;;;;;4193180;28;20308;-59
2023/12/17 04:18:12;;;;;;;30.50;14.97;;;-3.90;99.90;;;;;;4194337;28;20265;-58
2023/12/17 04:20:13;;;;;;;32.70;14.07;;;-3.90;99.90;;;;;;4193775;28;20249;-57
2023/12/17 04:22:14;;;;;;;26.23;14.50;;;-3.90;99.90;;;;;;4194016;28;20643;-59
2023/12/17 04:24:15;;;;;;;30.37;13.67;;;-3.90;99.90;;;;;;4192934;28;20706;-58
2023/12/17 04:26:17;;;;;;;31.53;12.43;;;-4.00;99.90;;;;;;4193602;28;20304;-59
2023/12/17 04:28:18;;;;;;;28.37;12.50;;;-3.90;99.90;;;;;;4192824;28;20673;-59
2023/12/17 04:30:19;;;;;;;26.47;12.93;;;-3.90;99.90;;;;;;4193422;28;20757;-53
2023/12/17 04:32:20;;;;;;;22.97;12.20;;;-3.90;99.90;;;;;;4193590;28;20422;-57
2023/12/17 04:34:21;;;;;;;27.33;12.50;;;-4.00;99.90;;;;;;4193682;28;20660;-50
2023/12/17 04:36:23;;;;;;;26.10;12.13;;;-3.90;99.90;;;;;;4193519;28;20735;-58
2023/12/17 04:38:24;;;;;;;25.90;11.70;;;-3.90;99.90;;;;;;4193094;28;20334;-59
2023/12/17 04:40:25;;;;;;;27.40;12.43;;;-4.00;99.90;;;;;;4193902;28;20273;-58
2023/12/17 04:42:28;;;;;;;31.43;11.90;;;-4.00;99.90;;;;;;4193873;28;20318;-58
2023/12/17 04:44:29;;;;;;;25.30;11.67;;;-4.10;99.90;;;;;;4193312;28;20850;-57
2023/12/17 04:46:30;;;;;;;19.37;10.47;;;-4.10;99.90;;;;;;4193312;28;20265;-59
2023/12/17 04:48:32;;;;;;;23.57;10.67;;;-4.20;99.90;;;;;;4193476;28;20335;-59
2023/12/17 04:50:33;;;;;;;23.63;10.80;;;-4.20;99.90;;;;;;4192745;28;20273;-59
2023/12/17 04:52:34;;;;;;;22.70;10.13;;;-4.20;99.90;;;;;;4194041;28;20273;-58
2023/12/17 04:54:35;;;;;;;19.43;10.13;;;-4.20;99.90;;;;;;4192566;28;20687;-57
2023/12/17 04:56:36;;;;;;;23.83;10.80;;;-4.20;99.90;;;;;;4175924;28;20282;-58
2023/12/17 04:58:38;;;;;;;24.57;11.57;;;-4.20;99.90;;;;;;4192870;28;20299;-56
2023/12/17 05:00:39;;;;;;;27.40;11.57;;;-4.20;99.90;;;;;;4193881;28;20885;-57
2023/12/17 05:02:40;;;;;;;20.40;9.80;;;-4.20;99.90;;;;;;4192346;28;20277;-55
2023/12/17 05:04:41;;;;;;;23.70;11.57;;;-4.20;99.90;;;;;;4193908;28;20305;-58
2023/12/17 05:06:43;;;;;;;22.77;11.20;;;-4.20;99.90;;;;;;4193197;28;20273;-56
2023/12/17 05:08:44;;;;;;;18.43;9.27;;;-4.10;99.90;;;;;;4193266;28;20614;-54
2023/12/17 05:10:45;;;;;;;21.67;11.43;;;-4.10;99.90;;;;;;4192642;28;20342;-57
2023/12/17 05:12:47;;;;;;;28.23;11.27;;;-4.00;99.90;;;;;;4192518;28;20668;-57
2023/12/17 05:14:48;;;;;;;25.13;11.93;;;-4.00;99.90;;;;;;4193164;28;20315;-59
2023/12/17 05:16:49;;;;;;;27.13;11.53;;;-4.00;99.90;;;;;;4192422;28;20323;-58
2023/12/17 05:18:50;;;;;;;27.80;12.07;;;-4.10;99.90;;;;;;4192934;28;20273;-58
2023/12/17 05:20:51;;;;;;;30.70;13.00;;;-4.20;99.90;;;;;;4192152;28;20738;-54
2023/12/17 05:22:53;;;;;;;28.43;12.07;;;-4.20;99.90;;;;;;4193283;28;20741;-55
2023/12/17 05:24:54;;;;;;;27.60;12.10;;;-4.30;99.90;;;;;;4192394;28;20343;-57
2023/12/17 05:26:55;;;;;;;26.03;12.33;;;-4.40;99.90;;;;;;4193758;28;20258;-58
2023/12/17 05:28:56;;;;;;;26.13;10.60;;;-4.40;99.90;;;;;;4192313;28;20339;-59
2023/12/17 05:30:57;;;;;;;23.13;10.63;;;-4.40;99.90;;;;;;4192669;28;20346;-58
2023/12/17 05:32:59;;;;;;;23.60;11.40;;;-4.40;99.90;;;;;;4191918;28;20331;-57
2023/12/17 05:35:00;;;;;;;25.60;11.90;;;-4.40;99.90;;;;;;4193244;28;20834;-60
2023/12/17 05:37:01;;;;;;;33.73;13.63;;;-4.30;99.90;;;;;;4192563;28;20326;-58
2023/12/17 05:39:03;;;;;;;35.03;16.00;;;-4.30;99.90;;;;;;4192752;28;20265;-58
2023/12/17 05:41:05;;;;;;;42.53;15.67;;;-4.40;99.90;;;;;;4192509;28;20265;-57
2023/12/17 05:43:08;;;;;;;29.57;14.00;;;-4.40;99.90;;;;;;4192374;28;20335;-59
2023/12/17 05:45:09;;;;;;;30.47;14.20;;;-4.40;99.90;;;;;;4192405;28;20777;-57
2023/12/17 05:47:10;;;;;;;31.67;13.87;;;-4.40;99.90;;;;;;4191095;28;21161;-59
2023/12/17 05:49:12;;;;;;;24.83;11.33;;;-4.40;99.90;;;;;;4192828;28;20277;-54
2023/12/17 05:51:13;;;;;;;26.67;11.90;;;-4.40;99.90;;;;;;4191389;28;20323;-58
2023/12/17 05:53:14;;;;;;;33.23;14.00;;;-4.40;99.90;;;;;;4175378;28;20289;-55
2023/12/17 05:55:15;;;;;;;26.87;13.37;;;-4.40;99.90;;;;;;4192160;28;20611;-58
2023/12/17 05:57:17;;;;;;;27.97;14.57;;;-4.40;99.90;;;;;;4192616;28;20399;-58
2023/12/17 05:59:18;;;;;;;29.60;15.60;;;-4.40;99.90;;;;;;4191154;28;20273;-59
2023/12/17 06:01:19;;;;;;;34.07;15.87;;;-4.40;99.90;;;;;;4191250;28;20315;-58
2023/12/17 06:03:20;;;;;;;31.07;14.73;;;-4.50;99.90;;;;;;4191326;28;20331;-57
2023/12/17 06:05:21;;;;;;;39.53;18.40;;;-4.50;99.90;;;;;;4192868;28;20350;-57
2023/12/17 06:07:22;;;;;;;26.43;13.23;;;-4.50;99.90;;;;;;4190397;28;20342;-58
2023/12/17 06:09:24;;;;;;;28.73;13.20;;;-4.60;99.90;;;;;;4174428;28;20371;-59
2023/12/17 06:11:25;;;;;;;25.77;12.40;;;-4.70;99.90;;;;;;4191921;28;20342;-58
2023/12/17 06:13:26;;;;;;;31.50;15.03;;;-4.70;99.90;;;;;;4191342;28;20292;-56
2023/12/17 06:15:27;;;;;;;29.97;14.80;;;-4.70;99.90;;;;;;4192262;28;20265;-57
2023/12/17 06:17:29;;;;;;;33.78;15.50;;;-4.70;99.90;;;;;;4191284;28;20330;-59
2023/12/17 06:19:30;;;;;;;30.27;13.50;;;-4.80;99.90;;;;;;4192493;28;20044;-56
2023/12/17 06:21:31;;;;;;;25.80;12.75;;;-4.80;99.90;;;;;;4191284;28;20276;-58
2023/12/17 06:23:32;;;;;;;27.23;13.80;;;-4.70;99.90;;;;;;4192930;28;20032;-59
2023/12/17 06:25:34;;;;;;;28.80;14.57;;;-4.70;99.90;;;;;;4191025;28;20818;-58
2023/12/17 06:27:36;;;;;;;28.55;14.68;;;-4.70;99.90;;;;;;4192709;28;20450;-59
2023/12/17 06:29:37;;;;;;;49.77;20.57;;;-4.70;99.90;;;;;;4190843;28;20048;-57
2023/12/17 06:31:40;;;;;;;52.73;21.37;;;-4.70;99.90;;;;;;4192361;28;20722;-59
2023/12/17 06:33:41;;;;;;;45.78;18.55;;;-4.70;99.90;;;;;;4192430;28;21051;-61
2023/12/17 06:35:44;;;;;;;50.17;19.52;;;-4.70;99.90;;;;;;4192787;28;20299;-58
2023/12/17 06:37:46;;;;;;;39.67;16.00;;;-4.70;99.90;;;;;;4192172;28;20349;-58
2023/12/17 06:39:47;;;;;;;37.03;16.00;;;-4.60;99.90;;;;;;4190590;28;20032;-58
2023/12/17 06:41:48;;;;;;;79.40;27.97;;;-4.50;99.90;;;;;;4192011;28;20269;-59
2023/12/17 06:43:49;;;;;;;52.67;21.57;;;-4.40;99.90;;;;;;4191273;28;20293;-57
2023/12/17 06:45:50;;;;;;;45.50;20.55;;;-4.40;99.90;;;;;;4191182;28;20273;-59
2023/12/17 06:47:52;;;;;;;52.80;21.93;;;-4.10;99.90;;;;;;4191899;28;20119;-53
2023/12/17 06:49:54;;;;;;;45.97;21.70;;;-3.70;99.90;;;;;;4192137;28;20265;-59
2023/12/17 06:51:55;;;;;;;47.87;21.37;;;-3.20;99.90;;;;;;4190939;28;20342;-57
2023/12/17 06:53:56;;;;;;;50.67;23.23;;;-2.70;99.90;;;;;;4191805;28;20324;-59
2023/12/17 06:55:57;;;;;;;44.20;20.37;;;-2.10;99.90;;;;;;4191678;28;20307;-59
2023/12/17 06:57:58;;;;;;;37.87;19.57;;;-1.60;99.90;;;;;;4192012;28;20278;-59
2023/12/17 07:00:00;;;;;;;42.73;20.77;;;-1.30;99.90;;;;;;4191425;28;20315;-59
2023/12/17 07:02:01;;;;;;;45.03;19.40;;;-1.10;99.90;;;;;;4190571;28;20281;-61
2023/12/17 07:04:02;;;;;;;42.93;19.47;;;-0.80;99.90;;;;;;4191743;28;20327;-58
2023/12/17 07:06:04;;;;;;;43.97;20.37;;;-0.40;99.90;;;;;;4191365;28;20825;-59
2023/12/17 07:08:05;;;;;;;51.50;19.90;;;-0.10;99.90;;;;;;4190947;28;20265;-60
2023/12/17 07:10:07;;;;;;;33.43;17.53;;;0.00;99.90;;;;;;4191958;28;20794;-59
2023/12/17 07:12:09;;;;;;;38.77;19.30;;;0.10;99.90;;;;;;4190441;28;20271;-61
2023/12/17 07:14:10;;;;;;;39.73;18.07;;;0.30;99.90;;;;;;4189407;28;20680;-61
2023/12/17 07:16:25;;;;;;;35.53;17.40;;;0.60;99.90;;;;;;4191881;28;20720;-58
2023/12/17 07:18:26;;;;;;;32.03;16.23;;;1.10;99.90;;;;;;4191948;28;20266;-59
2023/12/17 07:20:27;;;;;;;34.00;16.83;;;1.40;99.90;;;;;;4194076;28;20311;-58
2023/12/17 07:22:28;;;;;;;31.03;17.37;;;1.50;99.90;;;;;;4193297;28;20626;-59
2023/12/17 07:24:29;;;;;;;29.63;15.20;;;1.90;99.90;;;;;;4193779;28;20305;-58
2023/12/17 07:26:31;;;;;;;28.43;14.00;;;2.20;99.90;;;;;;4193557;28;20278;-56
2023/12/17 07:28:32;;;;;;;24.53;13.83;;;2.50;99.90;;;;;;4194770;28;20273;-59
2023/12/17 07:30:35;;;;;;;27.13;14.60;;;2.80;99.90;;;;;;4192785;28;20098;-58
2023/12/17 07:32:36;;;;;;;23.80;13.27;;;3.00;99.90;;;;;;4193764;28;20040;-59
2023/12/17 07:34:37;;;;;;;26.97;14.53;;;3.30;99.90;;;;;;4193531;28;20044;-59
2023/12/17 07:36:38;;;;;;;26.63;14.10;;;3.50;99.90;;;;;;4193242;28;20458;-58
2023/12/17 07:38:40;;;;;;;29.90;15.53;;;3.50;99.90;;;;;;4191214;28;20058;-59
2023/12/17 07:40:41;;;;;;;23.13;14.53;;;3.50;99.90;;;;;;4193752;28;20046;-61
2023/12/17 07:42:42;;;;;;;30.23;16.10;;;3.40;99.90;;;;;;4194108;28;20716;-59
2023/12/17 07:44:43;;;;;;;41.60;18.27;;;3.50;99.90;;;;;;4193530;28;20541;-59
2023/12/17 07:46:45;;;;;;;31.03;17.40;;;3.50;99.90;;;;;;4193745;28;20037;-59
2023/12/17 07:48:46;;;;;;;28.37;17.17;;;3.50;99.90;;;;;;4193794;28;20029;-60
2023/12/17 07:50:47;;;;;;;32.13;17.77;;;3.10;99.90;;;;;;4193052;28;20090;-59
2023/12/17 07:52:48;;;;;;;37.17;16.77;;;2.90;99.90;;;;;;4192501;28;20040;-58
2023/12/17 07:54:50;;;;;;;32.07;16.93;;;2.80;99.90;;;;;;4193732;28;20051;-59
2023/12/17 07:56:51;;;;;;;31.70;17.97;;;2.60;99.90;;;;;;4192233;28;20079;-57
2023/12/17 07:58:52;;;;;;;33.90;17.90;;;2.60;99.90;;;;;;4193525;28;20040;-59
2023/12/17 08:00:53;;;;;;;29.87;17.07;;;2.70;99.90;;;;;;4192577;28;20083;-58
2023/12/17 08:02:54;;;;;;;33.73;17.47;;;2.50;99.90;;;;;;4193490;28;20053;-62
2023/12/17 08:04:55;;;;;;;34.43;17.13;;;2.00;99.90;;;;;;4185187;28;20094;-60
2023/12/17 08:06:56;;;;;;;32.17;15.83;;;2.00;99.90;;;;;;4194624;28;20024;-60
2023/12/17 08:08:58;;;;;;;31.40;17.43;;;2.10;99.90;;;;;;4192736;28;20087;-59
2023/12/17 08:10:59;;;;;;;33.33;16.00;;;2.00;99.90;;;;;;4192788;28;20439;-60
2023/12/17 08:13:00;;;;;;;43.93;17.73;;;1.60;99.90;;;;;;4193128;28;20044;-60
2023/12/17 08:15:01;;;;;;;27.97;14.60;;;1.40;99.90;;;;;;4193098;28;20040;-60
2023/12/17 08:17:03;;;;;;;27.83;15.17;;;1.60;99.90;;;;;;4193379;28;20036;-60
2023/12/17 08:19:04;;;;;;;24.53;15.33;;;2.00;99.90;;;;;;4192848;28;20040;-61
2023/12/17 08:21:06;;;;;;;28.63;15.40;;;2.30;99.90;;;;;;4193009;28;20330;-61
2023/12/17 08:23:07;;;;;;;30.70;16.00;;;2.10;99.90;;;;;;4192993;28;20377;-61
2023/12/17 08:25:08;;;;;;;31.90;16.17;;;1.90;99.90;;;;;;4194284;28;20679;-61
2023/12/17 08:27:09;;;;;;;29.60;15.93;;;1.40;99.90;;;;;;4192790;28;20323;-57
2023/12/17 08:29:10;;;;;;;30.13;16.00;;;1.10;99.90;;;;;;4193517;28;20281;-61
2023/12/17 08:31:12;;;;;;;30.97;16.50;;;0.90;99.90;;;;;;4190763;28;20266;-61
2023/12/17 08:33:14;;;;;;;32.33;15.67;;;0.90;99.90;;;;;;4178605;28;20286;-60
2023/12/17 08:35:15;;;;;;;33.63;17.70;;;0.80;99.90;;;;;;4176307;28;20289;-60
2023/12/17 08:37:16;;;;;;;32.47;16.83;;;0.80;99.90;;;;;;4177560;28;20270;-61
2023/12/17 08:39:17;;;;;;;32.30;15.63;;;0.80;99.90;;;;;;4175915;28;20278;-62
2023/12/17 08:41:18;;;;;;;31.20;16.30;;;1.00;99.90;;;;;;4192209;28;20270;-60
2023/12/17 08:43:20;;;;;;;33.20;15.80;;;1.30;99.90;;;;;;4191374;28;20273;-61
2023/12/17 08:45:21;;;;;;;28.97;14.10;;;1.60;99.90;;;;;;4193645;28;20830;-60
2023/12/17 08:47:22;;;;;;;25.67;13.50;;;1.60;99.90;;;;;;4192993;28;20277;-60
2023/12/17 08:49:23;;;;;;;24.03;14.70;;;1.80;99.90;;;;;;4192361;28;20339;-61
2023/12/17 08:51:25;;;;;;;24.63;13.53;;;1.90;99.90;;;;;;4193851;28;20807;-61
2023/12/17 08:53:26;;;;;;;26.97;13.17;;;1.80;99.90;;;;;;4193144;28;20265;-60
2023/12/17 08:55:27;;;;;;;22.60;12.20;;;1.80;99.90;;;;;;4192843;28;20273;-61
2023/12/17 08:57:28;;;;;;;23.27;12.13;;;1.80;99.90;;;;;;4191916;28;20261;-59
2023/12/17 08:59:29;;;;;;;21.70;11.90;;;1.70;99.90;;;;;;4193070;28;20308;-61
2023/12/17 09:01:31;;;;;;;19.10;11.13;;;1.50;99.90;;;;;;4193160;28;20257;-62
2023/12/17 09:03:32;;;;;;;23.90;11.80;;;1.20;99.90;;;;;;4194201;28;20353;-60
2023/12/17 09:05:35;;;;;;;24.47;12.10;;;1.10;99.90;;;;;;4174511;28;20333;-60
2023/12/17 09:07:36;;;;;;;23.87;12.60;;;1.00;99.90;;;;;;4193174;28;20258;-60
2023/12/17 09:09:37;;;;;;;24.07;11.93;;;0.90;99.90;;;;;;4192698;28;20660;-59
2023/12/17 09:11:38;;;;;;;20.27;11.53;;;0.90;99.90;;;;;;4174983;28;20340;-57
2023/12/17 09:13:40;;;;;;;22.37;10.83;;;0.70;99.90;;;;;;4192230;28;20281;-60
2023/12/17 09:15:41;;;;;;;22.37;11.40;;;0.70;99.90;;;;;;4193458;28;20327;-60
2023/12/17 09:17:43;;;;;;;22.47;10.97;;;0.70;99.90;;;;;;4193157;28;20261;-59
2023/12/17 09:19:44;;;;;;;23.80;11.67;;;0.70;99.90;;;;;;4192388;28;20273;-60
2023/12/17 09:21:45;;;;;;;19.40;9.77;;;0.80;99.90;;;;;;4192587;28;20257;-59
2023/12/17 09:23:47;;;;;;;26.73;11.80;;;0.70;99.90;;;;;;4191824;28;20273;-59
2023/12/17 09:25:48;;;;;;;22.07;11.07;;;0.70;99.90;;;;;;4192582;28;20347;-62
2023/12/17 09:27:51;;;;;;;24.10;12.33;;;0.80;99.90;;;;;;4190633;28;20266;-60
2023/12/17 09:29:52;;;;;;;25.97;14.73;;;0.70;99.90;;;;;;4192626;28;20277;-61
2023/12/17 09:31:54;;;;;;;31.93;16.13;;;0.50;99.90;;;;;;4191953;28;20270;-59
2023/12/17 09:33:55;;;;;;;34.27;18.47;;;0.40;99.90;;;;;;4193495;28;20258;-60
2023/12/17 09:35:56;;;;;;;37.97;21.70;;;0.40;99.90;;;;;;4191274;28;20660;-60
2023/12/17 09:37:58;;;;;;;36.90;22.13;;;0.40;99.90;;;;;;4175285;28;20304;-58
2023/12/17 09:39:59;;;;;;;33.27;19.13;;;0.50;99.90;;;;;;4191809;28;20611;-61
2023/12/17 09:42:00;;;;;;;33.20;19.60;;;0.40;99.90;;;;;;4192125;28;20355;-60
2023/12/17 09:44:04;;;;;;;30.07;17.80;;;0.30;99.90;;;;;;4190566;28;20324;-58
2023/12/17 09:46:05;;;;;;;33.67;20.27;;;0.30;99.90;;;;;;4192555;28;20281;-61
2023/12/17 09:48:06;;;;;;;40.67;25.03;;;0.30;99.90;;;;;;4192098;28;20629;-60
2023/12/17 09:50:09;;;;;;;30.00;19.17;;;0.30;99.90;;;;;;4191298;28;20760;-57
2023/12/17 09:52:12;;;;;;;30.33;18.97;;;0.30;99.90;;;;;;4192300;28;20273;-59
2023/12/17 09:54:14;;;;;;;33.60;20.13;;;0.30;99.90;;;;;;4191794;28;20273;-52
2023/12/17 09:56:15;;;;;;;34.53;22.80;;;0.30;99.90;;;;;;4192583;28;20262;-58
2023/12/17 09:58:16;;;;;;;31.90;20.40;;;0.30;99.90;;;;;;4190529;28;20262;-58
2023/12/17 10:00:17;;;;;;;29.00;16.83;;;0.40;99.90;;;;;;4174572;28;20736;-59
2023/12/17 10:02:19;;;;;;;30.03;17.77;;;0.50;99.90;;;;;;4190703;28;20273;-58
2023/12/17 10:04:24;;;;;;;31.17;15.33;;;0.50;99.90;;;;;;4192342;28;20278;-58
2023/12/17 10:06:25;;;;;;;22.00;13.00;;;0.40;99.90;;;;;;4191210;28;20427;-58
2023/12/17 10:08:27;;;;;;;19.27;12.70;;;0.40;99.90;;;;;;4192621;28;20285;-59
2023/12/17 10:10:29;;;;;;;23.27;11.83;;;0.40;99.90;;;;;;4191518;28;20625;-59
2023/12/17 10:12:30;;;;;;;20.80;11.63;;;0.50;99.90;;;;;;4191599;28;20338;-59
2023/12/17 10:14:31;;;;;;;28.17;12.63;;;0.50;99.90;;;;;;4191912;28;20261;-58
2023/12/17 10:16:33;;;;;;;26.87;11.83;;;0.60;99.90;;;;;;4191889;28;20283;-62
2023/12/17 10:18:34;;;;;;;21.37;10.70;;;0.60;99.90;;;;;;4190816;28;20330;-54